sensor_id;sensor_type;location;lat;lon;timestamp;pressure;altitude;pressure_sealevel;temperature;humidity
41624;BME280;27319;50.306;18.926;2023-05-10T00:02:30;98399.00;;;10.06;61.03
41624;BME280;27319;50.306;18.926;2023-05-10T00:06:06;98393.19;;;10.19;62.73
41624;BME280;27319;50.306;18.926;2023-05-10T00:09:27;98389.03;;;9.99;63.19
41624;BME280;27319;50.306;18.926;2023-05-10T00:13:27;98390.72;;;10.00;64.17
41624;BME280;27319;50.306;18.926;2023-05-10T00:17:08;98385.53;;;9.98;62.91
41624;BME280;27319;50.306;18.926;2023-05-10T00:20:10;98381.91;;;9.82;61.38
41624;BME280;27319;50.306;18.926;2023-05-10T00:23:11;98385.16;;;9.93;62.35
41624;BME280;27319;50.306;18.926;2023-05-10T00:26:12;98383.78;;;9.81;62.09
41624;BME280;27319;50.306;18.926;2023-05-10T00:29:14;98381.50;;;10.02;64.98
41624;BME280;27319;50.306;18.926;2023-05-10T00:32:14;98379.63;;;9.95;62.07
41624;BME280;27319;50.306;18.926;2023-05-10T00:35:16;98377.13;;;9.93;62.62
41624;BME280;27319;50.306;18.926;2023-05-10T00:38:37;98380.44;;;9.87;62.90
41624;BME280;27319;50.306;18.926;2023-05-10T00:42:18;98378.75;;;9.86;62.88
41624;BME280;27319;50.306;18.926;2023-05-10T00:45:39;98375.38;;;9.76;63.47
41624;BME280;27319;50.306;18.926;2023-05-10T00:49:20;98381.03;;;9.73;62.80
41624;BME280;27319;50.306;18.926;2023-05-10T00:52:21;98373.31;;;9.70;64.25
41624;BME280;27319;50.306;18.926;2023-05-10T00:55:24;98371.69;;;9.77;63.81
41624;BME280;27319;50.306;18.926;2023-05-10T00:58:25;98365.47;;;9.77;63.61
41624;BME280;27319;50.306;18.926;2023-05-10T01:01:29;98365.41;;;9.61;63.02
41624;BME280;27319;50.306;18.926;2023-05-10T01:04:33;98370.44;;;9.38;62.62
41624;BME280;27319;50.306;18.926;2023-05-10T01:07:34;98363.44;;;9.45;65.07
41624;BME280;27319;50.306;18.926;2023-05-10T01:10:35;98358.72;;;9.39;63.49
41624;BME280;27319;50.306;18.926;2023-05-10T01:13:56;98360.06;;;9.35;65.64
41624;BME280;27319;50.306;18.926;2023-05-10T01:17:56;98354.69;;;9.61;65.52
41624;BME280;27319;50.306;18.926;2023-05-10T01:35:02;98357.00;;;9.30;64.93
41624;BME280;27319;50.306;18.926;2023-05-10T01:38:19;98348.81;;;9.32;64.32
41624;BME280;27319;50.306;18.926;2023-05-10T01:48:32;98345.06;;;9.25;64.59
41624;BME280;27319;50.306;18.926;2023-05-10T01:51:54;98335.13;;;9.17;65.81
41624;BME280;27319;50.306;18.926;2023-05-10T01:55:19;98343.44;;;9.06;65.21
41624;BME280;27319;50.306;18.926;2023-05-10T01:59:19;98343.38;;;8.98;65.22
41624;BME280;27319;50.306;18.926;2023-05-10T02:03:04;98333.97;;;8.94;66.31
41624;BME280;27319;50.306;18.926;2023-05-10T02:06:48;98326.50;;;8.80;64.94
41624;BME280;27319;50.306;18.926;2023-05-10T02:10:25;98328.16;;;8.81;66.61
41624;BME280;27319;50.306;18.926;2023-05-10T02:14:09;98325.97;;;8.77;66.02
41624;BME280;27319;50.306;18.926;2023-05-10T02:17:31;98325.34;;;8.83;66.15
41624;BME280;27319;50.306;18.926;2023-05-10T02:21:31;98318.09;;;8.75;66.82
41624;BME280;27319;50.306;18.926;2023-05-10T02:25:32;98320.53;;;8.86;66.83
41624;BME280;27319;50.306;18.926;2023-05-10T02:29:33;98317.31;;;8.65;66.60
41624;BME280;27319;50.306;18.926;2023-05-10T02:33:29;98312.75;;;8.75;67.23
41624;BME280;27319;50.306;18.926;2023-05-10T02:37:11;98323.44;;;8.75;66.95
41624;BME280;27319;50.306;18.926;2023-05-10T02:40:15;98316.72;;;8.71;66.47
41624;BME280;27319;50.306;18.926;2023-05-10T02:43:18;98314.88;;;8.72;65.75
41624;BME280;27319;50.306;18.926;2023-05-10T02:46:25;98317.88;;;8.69;66.80
41624;BME280;27319;50.306;18.926;2023-05-10T02:49:46;98311.31;;;8.63;67.16
41624;BME280;27319;50.306;18.926;2023-05-10T02:53:47;98324.91;;;8.70;67.21
41624;BME280;27319;50.306;18.926;2023-05-10T02:57:32;98318.72;;;8.69;66.67
41624;BME280;27319;50.306;18.926;2023-05-10T03:00:37;98324.00;;;8.61;67.11
41624;BME280;27319;50.306;18.926;2023-05-10T03:03:38;98321.78;;;8.57;67.62
41624;BME280;27319;50.306;18.926;2023-05-10T03:06:48;98318.56;;;8.53;66.30
41624;BME280;27319;50.306;18.926;2023-05-10T03:09:49;98314.59;;;8.57;67.07
41624;BME280;27319;50.306;18.926;2023-05-10T03:13:07;98320.84;;;8.48;66.84
41624;BME280;27319;50.306;18.926;2023-05-10T03:16:16;98318.72;;;8.34;66.67
41624;BME280;27319;50.306;18.926;2023-05-10T03:19:43;98314.28;;;8.43;67.65
41624;BME280;27319;50.306;18.926;2023-05-10T03:23:59;98320.66;;;8.42;67.70
41624;BME280;27319;50.306;18.926;2023-05-10T03:27:41;98319.88;;;8.32;67.54
41624;BME280;27319;50.306;18.926;2023-05-10T03:30:43;98315.53;;;8.31;67.80
41624;BME280;27319;50.306;18.926;2023-05-10T03:33:49;98309.50;;;8.29;67.71
41624;BME280;27319;50.306;18.926;2023-05-10T03:37:10;98306.00;;;8.19;67.84
41624;BME280;27319;50.306;18.926;2023-05-10T03:41:11;98309.63;;;8.27;67.98
41624;BME280;27319;50.306;18.926;2023-05-10T03:45:12;98312.69;;;8.32;67.60
41624;BME280;27319;50.306;18.926;2023-05-10T03:49:13;98304.97;;;8.29;67.23
41624;BME280;27319;50.306;18.926;2023-05-10T03:52:36;98303.00;;;8.31;68.74
41624;BME280;27319;50.306;18.926;2023-05-10T03:55:39;98307.25;;;8.24;67.46
41624;BME280;27319;50.306;18.926;2023-05-10T03:58:40;98305.28;;;8.26;68.03
41624;BME280;27319;50.306;18.926;2023-05-10T04:01:41;98304.34;;;8.35;67.76
41624;BME280;27319;50.306;18.926;2023-05-10T04:04:42;98307.41;;;8.40;68.11
41624;BME280;27319;50.306;18.926;2023-05-10T04:07:43;98318.03;;;8.50;67.73
41624;BME280;27319;50.306;18.926;2023-05-10T04:10:45;98311.09;;;8.39;68.08
41624;BME280;27319;50.306;18.926;2023-05-10T04:14:05;98318.06;;;8.32;68.31
41624;BME280;27319;50.306;18.926;2023-05-10T04:17:46;98306.22;;;8.35;68.34
41624;BME280;27319;50.306;18.926;2023-05-10T04:20:47;98314.97;;;8.45;68.62
41624;BME280;27319;50.306;18.926;2023-05-10T04:23:49;98315.06;;;8.35;69.18
41624;BME280;27319;50.306;18.926;2023-05-10T04:26:50;98313.75;;;8.39;69.00
41624;BME280;27319;50.306;18.926;2023-05-10T04:29:51;98316.06;;;8.34;68.08
41624;BME280;27319;50.306;18.926;2023-05-10T04:32:51;98311.84;;;8.32;68.17
41624;BME280;27319;50.306;18.926;2023-05-10T04:36:12;98313.75;;;8.39;68.79
41624;BME280;27319;50.306;18.926;2023-05-10T04:39:53;98316.50;;;8.65;68.12
41624;BME280;27319;50.306;18.926;2023-05-10T04:43:14;98315.50;;;8.48;68.84
41624;BME280;27319;50.306;18.926;2023-05-10T04:46:15;98315.28;;;8.59;67.77
41624;BME280;27319;50.306;18.926;2023-05-10T04:49:16;98309.25;;;8.57;68.09
41624;BME280;27319;50.306;18.926;2023-05-10T04:52:25;98319.66;;;8.60;68.13
41624;BME280;27319;50.306;18.926;2023-05-10T04:55:46;98316.56;;;8.73;67.45
41624;BME280;27319;50.306;18.926;2023-05-10T04:59:47;98316.94;;;8.78;67.62
41624;BME280;27319;50.306;18.926;2023-05-10T05:03:28;98307.09;;;8.78;67.14
41624;BME280;27319;50.306;18.926;2023-05-10T05:06:28;98310.34;;;8.90;67.49
41624;BME280;27319;50.306;18.926;2023-05-10T05:09:29;98303.53;;;8.95;67.79
41624;BME280;27319;50.306;18.926;2023-05-10T05:12:46;98306.59;;;9.00;67.21
41624;BME280;27319;50.306;18.926;2023-05-10T05:16:07;98312.66;;;9.10;67.06
41624;BME280;27319;50.306;18.926;2023-05-10T05:20:08;98301.53;;;9.23;66.05
41624;BME280;27319;50.306;18.926;2023-05-10T05:24:09;98310.13;;;9.34;65.04
41624;BME280;27319;50.306;18.926;2023-05-10T05:28:10;98315.19;;;9.37;66.32
41624;BME280;27319;50.306;18.926;2023-05-10T05:32:11;98301.94;;;9.36;65.13
41624;BME280;27319;50.306;18.926;2023-05-10T05:36:12;98309.19;;;9.43;66.01
41624;BME280;27319;50.306;18.926;2023-05-10T05:40:12;98306.53;;;9.51;65.63
41624;BME280;27319;50.306;18.926;2023-05-10T05:44:13;98307.59;;;9.58;65.87
41624;BME280;27319;50.306;18.926;2023-05-10T05:48:14;98315.75;;;9.82;64.46
41624;BME280;27319;50.306;18.926;2023-05-10T05:52:15;98309.91;;;9.87;64.46
41624;BME280;27319;50.306;18.926;2023-05-10T05:56:15;98306.41;;;10.02;63.41
41624;BME280;27319;50.306;18.926;2023-05-10T06:00:00;98312.88;;;10.17;62.84
41624;BME280;27319;50.306;18.926;2023-05-10T06:03:41;98311.56;;;10.21;63.03
41624;BME280;27319;50.306;18.926;2023-05-10T06:06:58;98309.53;;;10.23;62.87
41624;BME280;27319;50.306;18.926;2023-05-10T06:10:19;98311.91;;;10.34;63.49
41624;BME280;27319;50.306;18.926;2023-05-10T06:14:20;98311.59;;;10.53;62.52
41624;BME280;27319;50.306;18.926;2023-05-10T06:18:20;98318.34;;;10.73;61.93
41624;BME280;27319;50.306;18.926;2023-05-10T06:22:21;98320.00;;;11.14;60.08
41624;BME280;27319;50.306;18.926;2023-05-10T06:26:22;98318.59;;;11.34;60.12
41624;BME280;27319;50.306;18.926;2023-05-10T06:30:23;98323.66;;;11.37;60.03
41624;BME280;27319;50.306;18.926;2023-05-10T06:34:23;98326.97;;;11.47;58.88
41624;BME280;27319;50.306;18.926;2023-05-10T06:38:24;98316.75;;;11.58;58.96
41624;BME280;27319;50.306;18.926;2023-05-10T06:42:25;98324.06;;;11.72;58.32
41624;BME280;27319;50.306;18.926;2023-05-10T06:46:26;98321.91;;;12.06;57.13
41624;BME280;27319;50.306;18.926;2023-05-10T06:50:27;98320.97;;;12.30;55.57
41624;BME280;27319;50.306;18.926;2023-05-10T06:54:28;98315.13;;;12.49;56.31
41624;BME280;27319;50.306;18.926;2023-05-10T06:58:28;98316.75;;;12.58;55.99
41624;BME280;27319;50.306;18.926;2023-05-10T07:02:29;98313.81;;;12.67;55.04
41624;BME280;27319;50.306;18.926;2023-05-10T07:06:10;98310.19;;;13.05;53.42
41624;BME280;27319;50.306;18.926;2023-05-10T07:09:11;98310.88;;;13.22;53.97
41624;BME280;27319;50.306;18.926;2023-05-10T07:12:14;98302.81;;;13.36;54.04
41624;BME280;27319;50.306;18.926;2023-05-10T07:15:14;98306.44;;;13.58;53.71
41624;BME280;27319;50.306;18.926;2023-05-10T07:18:16;98308.13;;;13.73;53.59
41624;BME280;27319;50.306;18.926;2023-05-10T07:21:17;98305.41;;;13.88;52.66
41624;BME280;27319;50.306;18.926;2023-05-10T07:24:18;98315.91;;;13.83;51.09
41624;BME280;27319;50.306;18.926;2023-05-10T07:27:19;98306.59;;;14.00;52.91
41624;BME280;27319;50.306;18.926;2023-05-10T07:30:40;98299.06;;;14.10;51.86
41624;BME280;27319;50.306;18.926;2023-05-10T07:34:41;98306.59;;;14.29;50.41
41624;BME280;27319;50.306;18.926;2023-05-10T07:38:42;98298.41;;;14.37;51.13
41624;BME280;27319;50.306;18.926;2023-05-10T07:42:43;98311.22;;;14.70;50.01
41624;BME280;27319;50.306;18.926;2023-05-10T07:46:44;98305.63;;;14.93;48.40
41624;BME280;27319;50.306;18.926;2023-05-10T07:50:44;98302.50;;;14.89;48.05
41624;BME280;27319;50.306;18.926;2023-05-10T07:54:45;98307.41;;;15.28;46.56
41624;BME280;27319;50.306;18.926;2023-05-10T07:58:46;98308.22;;;15.49;46.83
41624;BME280;27319;50.306;18.926;2023-05-10T08:02:47;98303.41;;;15.45;46.18
41624;BME280;27319;50.306;18.926;2023-05-10T08:06:24;98305.75;;;15.54;46.41
41624;BME280;27319;50.306;18.926;2023-05-10T08:09:26;98307.69;;;15.67;45.45
41624;BME280;27319;50.306;18.926;2023-05-10T08:12:28;98303.06;;;15.88;43.22
41624;BME280;27319;50.306;18.926;2023-05-10T08:15:28;98297.22;;;15.91;45.01
41624;BME280;27319;50.306;18.926;2023-05-10T08:18:29;98302.94;;;16.03;44.56
41624;BME280;27319;50.306;18.926;2023-05-10T08:21:30;98297.28;;;15.98;44.01
41624;BME280;27319;50.306;18.926;2023-05-10T08:24:32;98299.91;;;16.25;42.97
41624;BME280;27319;50.306;18.926;2023-05-10T08:27:32;98296.56;;;16.30;44.10
41624;BME280;27319;50.306;18.926;2023-05-10T08:30:34;98299.94;;;16.32;41.40
41624;BME280;27319;50.306;18.926;2023-05-10T08:33:35;98292.50;;;16.47;44.37
41624;BME280;27319;50.306;18.926;2023-05-10T08:36:56;98304.25;;;16.67;44.48
41624;BME280;27319;50.306;18.926;2023-05-10T08:40:56;98302.41;;;16.80;43.07
41624;BME280;27319;50.306;18.926;2023-05-10T08:44:57;98292.59;;;16.86;43.60
41624;BME280;27319;50.306;18.926;2023-05-10T08:48:58;98290.72;;;16.86;42.30
41624;BME280;27319;50.306;18.926;2023-05-10T08:53:00;98294.31;;;17.13;44.05
41624;BME280;27319;50.306;18.926;2023-05-10T08:57:00;98304.09;;;17.27;43.01
41624;BME280;27319;50.306;18.926;2023-05-10T09:01:01;98303.91;;;17.15;42.04
41624;BME280;27319;50.306;18.926;2023-05-10T09:04:41;98304.31;;;17.32;42.24
41624;BME280;27319;50.306;18.926;2023-05-10T09:07:42;98303.94;;;17.48;43.02
41624;BME280;27319;50.306;18.926;2023-05-10T09:10:44;98299.75;;;17.45;40.22
41624;BME280;27319;50.306;18.926;2023-05-10T09:13:48;98305.59;;;17.23;39.16
41624;BME280;27319;50.306;18.926;2023-05-10T09:17:11;98304.34;;;17.45;41.42
41624;BME280;27319;50.306;18.926;2023-05-10T09:21:12;98309.78;;;17.58;40.79
41624;BME280;27319;50.306;18.926;2023-05-10T09:25:28;98308.09;;;17.70;40.25
41624;BME280;27319;50.306;18.926;2023-05-10T09:29:39;98294.09;;;17.60;40.99
41624;BME280;27319;50.306;18.926;2023-05-10T09:33:45;98299.66;;;17.97;40.56
41624;BME280;27319;50.306;18.926;2023-05-10T09:37:49;98301.00;;;18.26;39.99
41624;BME280;27319;50.306;18.926;2023-05-10T09:41:49;98302.72;;;18.14;40.86
41624;BME280;27319;50.306;18.926;2023-05-10T09:45:50;98296.03;;;18.23;41.11
41624;BME280;27319;50.306;18.926;2023-05-10T09:49:52;98295.41;;;18.21;37.80
41624;BME280;27319;50.306;18.926;2023-05-10T09:54:08;98297.03;;;18.28;41.17
41624;BME280;27319;50.306;18.926;2023-05-10T09:57:41;98293.22;;;18.49;38.84
41624;BME280;27319;50.306;18.926;2023-05-10T10:01:42;98294.81;;;18.63;40.53
41624;BME280;27319;50.306;18.926;2023-05-10T10:05:49;98285.19;;;18.67;38.55
41624;BME280;27319;50.306;18.926;2023-05-10T10:09:31;98287.34;;;18.52;39.64
41624;BME280;27319;50.306;18.926;2023-05-10T10:12:31;98279.88;;;18.78;39.76
41624;BME280;27319;50.306;18.926;2023-05-10T10:15:34;98282.81;;;19.08;40.26
41624;BME280;27319;50.306;18.926;2023-05-10T10:18:38;98285.91;;;19.42;40.26
41624;BME280;27319;50.306;18.926;2023-05-10T10:21:39;98287.53;;;19.50;38.73
41624;BME280;27319;50.306;18.926;2023-05-10T10:24:40;98286.38;;;19.82;41.15
41624;BME280;27319;50.306;18.926;2023-05-10T10:30:51;98288.47;;;19.80;36.91
41624;BME280;27319;50.306;18.926;2023-05-10T10:34:04;98261.34;;;19.24;39.10
41624;BME280;27319;50.306;18.926;2023-05-10T10:37:06;98265.13;;;19.48;37.06
41624;BME280;27319;50.306;18.926;2023-05-10T10:40:26;98264.59;;;19.08;38.34
41624;BME280;27319;50.306;18.926;2023-05-10T10:43:28;98268.94;;;19.47;38.20
41624;BME280;27319;50.306;18.926;2023-05-10T10:46:29;98263.56;;;19.34;35.91
41624;BME280;27319;50.306;18.926;2023-05-10T10:49:37;98248.94;;;19.04;36.86
41624;BME280;27319;50.306;18.926;2023-05-10T10:52:40;98250.78;;;19.10;38.76
41624;BME280;27319;50.306;18.926;2023-05-10T10:55:48;98252.59;;;19.16;37.11
41624;BME280;27319;50.306;18.926;2023-05-10T10:58:49;98248.41;;;19.20;38.16
41624;BME280;27319;50.306;18.926;2023-05-10T11:01:53;98253.16;;;19.00;37.65
41624;BME280;27319;50.306;18.926;2023-05-10T11:04:55;98237.47;;;18.71;39.29
41624;BME280;27319;50.306;18.926;2023-05-10T11:07:57;98244.66;;;19.21;40.21
41624;BME280;27319;50.306;18.926;2023-05-10T11:14:06;98241.72;;;19.22;37.57
41624;BME280;27319;50.306;18.926;2023-05-10T11:17:31;98248.97;;;18.97;38.38
41624;BME280;27319;50.306;18.926;2023-05-10T11:20:39;98241.13;;;18.83;38.47
41624;BME280;27319;50.306;18.926;2023-05-10T11:27:03;98241.06;;;19.45;41.67
41624;BME280;27319;50.306;18.926;2023-05-10T11:31:04;98229.94;;;20.07;38.72
41624;BME280;27319;50.306;18.926;2023-05-10T11:35:08;98232.72;;;20.00;37.54
41624;BME280;27319;50.306;18.926;2023-05-10T11:39:08;98230.53;;;20.27;38.60
41624;BME280;27319;50.306;18.926;2023-05-10T11:43:09;98228.69;;;20.68;39.64
41624;BME280;27319;50.306;18.926;2023-05-10T11:47:10;98230.06;;;21.41;35.33
41624;BME280;27319;50.306;18.926;2023-05-10T11:51:10;98224.81;;;21.17;35.74
41624;BME280;27319;50.306;18.926;2023-05-10T11:55:11;98227.31;;;21.30;35.36
41624;BME280;27319;50.306;18.926;2023-05-10T11:59:15;98225.53;;;20.83;36.09
41624;BME280;27319;50.306;18.926;2023-05-10T12:03:16;98221.28;;;20.87;35.90
41624;BME280;27319;50.306;18.926;2023-05-10T12:06:21;98219.38;;;20.87;36.85
41624;BME280;27319;50.306;18.926;2023-05-10T12:09:22;98224.31;;;20.97;36.79
41624;BME280;27319;50.306;18.926;2023-05-10T12:12:23;98230.63;;;21.66;36.88
41624;BME280;27319;50.306;18.926;2023-05-10T12:15:24;98234.19;;;22.01;36.82
41624;BME280;27319;50.306;18.926;2023-05-10T12:18:25;98219.56;;;22.07;32.94
41624;BME280;27319;50.306;18.926;2023-05-10T12:21:28;98233.53;;;22.45;35.10
41624;BME280;27319;50.306;18.926;2023-05-10T12:24:29;98224.84;;;21.97;33.11
41624;BME280;27319;50.306;18.926;2023-05-10T12:27:33;98222.69;;;21.65;34.31
41624;BME280;27319;50.306;18.926;2023-05-10T12:30:35;98217.00;;;21.43;35.16
41624;BME280;27319;50.306;18.926;2023-05-10T12:33:42;98216.50;;;21.23;36.91
41624;BME280;27319;50.306;18.926;2023-05-10T12:36:43;98214.97;;;20.86;34.75
41624;BME280;27319;50.306;18.926;2023-05-10T12:39:44;98214.34;;;20.73;38.29
41624;BME280;27319;50.306;18.926;2023-05-10T12:42:46;98207.78;;;20.51;36.69
41624;BME280;27319;50.306;18.926;2023-05-10T12:45:47;98204.34;;;20.55;37.34
41624;BME280;27319;50.306;18.926;2023-05-10T12:48:49;98203.25;;;20.45;37.58
41624;BME280;27319;50.306;18.926;2023-05-10T12:51:55;98203.41;;;20.32;36.45
41624;BME280;27319;50.306;18.926;2023-05-10T12:54:56;98202.69;;;20.54;37.42
41624;BME280;27319;50.306;18.926;2023-05-10T12:57:57;98198.53;;;20.52;36.50
41624;BME280;27319;50.306;18.926;2023-05-10T13:00:59;98198.44;;;20.29;37.93
41624;BME280;27319;50.306;18.926;2023-05-10T13:04:01;98192.47;;;20.20;38.00
41624;BME280;27319;50.306;18.926;2023-05-10T13:07:01;98192.91;;;20.17;39.72
41624;BME280;27319;50.306;18.926;2023-05-10T13:10:03;98193.16;;;20.16;37.67
41624;BME280;27319;50.306;18.926;2023-05-10T13:13:04;98187.47;;;19.99;37.97
41624;BME280;27319;50.306;18.926;2023-05-10T13:16:06;98186.41;;;20.00;38.49
41624;BME280;27319;50.306;18.926;2023-05-10T13:19:07;98187.03;;;19.84;38.10
41624;BME280;27319;50.306;18.926;2023-05-10T13:22:08;98177.41;;;19.64;37.13
41624;BME280;27319;50.306;18.926;2023-05-10T13:25:09;98172.88;;;19.58;38.03
41624;BME280;27319;50.306;18.926;2023-05-10T13:28:11;98173.03;;;19.63;38.34
41624;BME280;27319;50.306;18.926;2023-05-10T13:31:12;98171.69;;;19.54;37.14
41624;BME280;27319;50.306;18.926;2023-05-10T13:34:13;98166.38;;;19.59;37.83
41624;BME280;27319;50.306;18.926;2023-05-10T13:37:14;98170.28;;;19.45;38.98
41624;BME280;27319;50.306;18.926;2023-05-10T13:40:15;98161.22;;;19.51;37.82
41624;BME280;27319;50.306;18.926;2023-05-10T13:43:16;98160.16;;;19.52;37.19
41624;BME280;27319;50.306;18.926;2023-05-10T13:46:17;98160.41;;;19.68;39.63
41624;BME280;27319;50.306;18.926;2023-05-10T13:49:19;98156.06;;;20.44;41.66
41624;BME280;27319;50.306;18.926;2023-05-10T13:52:20;98162.03;;;21.40;38.03
41624;BME280;27319;50.306;18.926;2023-05-10T13:55:21;98156.28;;;21.53;36.55
41624;BME280;27319;50.306;18.926;2023-05-10T13:58:22;98163.84;;;21.97;35.09
41624;BME280;27319;50.306;18.926;2023-05-10T14:01:24;98159.41;;;21.45;33.33
41624;BME280;27319;50.306;18.926;2023-05-10T14:04:25;98153.00;;;21.05;34.31
41624;BME280;27319;50.306;18.926;2023-05-10T14:07:25;98154.13;;;20.86;36.23
41624;BME280;27319;50.306;18.926;2023-05-10T14:10:27;98153.28;;;20.74;35.18
41624;BME280;27319;50.306;18.926;2023-05-10T14:13:28;98140.47;;;20.33;38.19
41624;BME280;27319;50.306;18.926;2023-05-10T14:16:29;98148.94;;;20.43;37.93
41624;BME280;27319;50.306;18.926;2023-05-10T14:19:30;98144.63;;;20.24;35.90
41624;BME280;27319;50.306;18.926;2023-05-10T14:22:33;98141.28;;;20.22;38.42
41624;BME280;27319;50.306;18.926;2023-05-10T14:25:34;98139.41;;;20.05;38.78
41624;BME280;27319;50.306;18.926;2023-05-10T14:28:35;98144.19;;;20.09;41.20
41624;BME280;27319;50.306;18.926;2023-05-10T14:31:36;98138.50;;;20.11;38.64
41624;BME280;27319;50.306;18.926;2023-05-10T14:34:37;98134.59;;;20.18;40.10
41624;BME280;27319;50.306;18.926;2023-05-10T14:37:38;98136.38;;;20.13;35.99
41624;BME280;27319;50.306;18.926;2023-05-10T14:40:39;98134.63;;;20.00;40.55
41624;BME280;27319;50.306;18.926;2023-05-10T14:43:40;98127.91;;;19.85;37.69
41624;BME280;27319;50.306;18.926;2023-05-10T14:46:42;98127.25;;;19.71;37.95
41624;BME280;27319;50.306;18.926;2023-05-10T14:49:42;98129.31;;;19.58;38.57
41624;BME280;27319;50.306;18.926;2023-05-10T14:52:44;98128.09;;;19.54;37.86
41624;BME280;27319;50.306;18.926;2023-05-10T14:55:44;98128.22;;;19.23;37.50
41624;BME280;27319;50.306;18.926;2023-05-10T14:58:46;98128.94;;;19.12;38.43
41624;BME280;27319;50.306;18.926;2023-05-10T15:01:46;98117.34;;;19.23;37.35
41624;BME280;27319;50.306;18.926;2023-05-10T15:04:47;98132.88;;;19.16;39.11
41624;BME280;27319;50.306;18.926;2023-05-10T15:07:48;98123.84;;;19.22;38.36
41624;BME280;27319;50.306;18.926;2023-05-10T15:10:50;98123.19;;;19.02;38.62
41624;BME280;27319;50.306;18.926;2023-05-10T15:13:51;98125.13;;;19.37;40.22
41624;BME280;27319;50.306;18.926;2023-05-10T15:16:52;98127.63;;;20.11;39.33
41624;BME280;27319;50.306;18.926;2023-05-10T15:19:53;98128.88;;;20.38;36.71
41624;BME280;27319;50.306;18.926;2023-05-10T15:22:54;98126.50;;;20.30;36.99
41624;BME280;27319;50.306;18.926;2023-05-10T15:25:55;98113.78;;;20.24;37.25
41624;BME280;27319;50.306;18.926;2023-05-10T15:28:56;98122.00;;;20.06;38.94
41624;BME280;27319;50.306;18.926;2023-05-10T15:31:57;98117.81;;;20.33;38.40
41624;BME280;27319;50.306;18.926;2023-05-10T15:34:58;98120.25;;;20.52;37.01
41624;BME280;27319;50.306;18.926;2023-05-10T15:37:59;98128.88;;;20.38;37.28
41624;BME280;27319;50.306;18.926;2023-05-10T15:41:00;98116.84;;;20.16;39.24
41624;BME280;27319;50.306;18.926;2023-05-10T15:44:01;98124.28;;;20.09;36.67
41624;BME280;27319;50.306;18.926;2023-05-10T15:47:22;98117.59;;;20.05;38.86
41624;BME280;27319;50.306;18.926;2023-05-10T15:51:23;98118.25;;;19.89;38.62
41624;BME280;27319;50.306;18.926;2023-05-10T15:55:24;98123.34;;;19.67;38.43
41624;BME280;27319;50.306;18.926;2023-05-10T15:59:25;98117.50;;;19.64;39.68
41624;BME280;27319;50.306;18.926;2023-05-10T16:03:21;98117.44;;;19.52;39.79
41624;BME280;27319;50.306;18.926;2023-05-10T16:06:22;98121.44;;;19.50;38.78
41624;BME280;27319;50.306;18.926;2023-05-10T16:09:30;98118.41;;;19.40;40.95
41624;BME280;27319;50.306;18.926;2023-05-10T16:12:52;98126.72;;;19.27;38.55
41624;BME280;27319;50.306;18.926;2023-05-10T16:16:50;98133.06;;;19.21;41.25
41624;BME280;27319;50.306;18.926;2023-05-10T16:20:38;98129.69;;;19.01;38.89
41624;BME280;27319;50.306;18.926;2023-05-10T16:24:39;98128.91;;;18.94;40.02
41624;BME280;27319;50.306;18.926;2023-05-10T16:28:40;98123.47;;;18.94;41.45
41624;BME280;27319;50.306;18.926;2023-05-10T16:32:41;98127.19;;;18.99;39.97
41624;BME280;27319;50.306;18.926;2023-05-10T16:36:42;98128.75;;;18.89;40.96
41624;BME280;27319;50.306;18.926;2023-05-10T16:40:23;98131.41;;;18.71;41.66
41624;BME280;27319;50.306;18.926;2023-05-10T16:43:43;98133.25;;;18.77;39.72
41624;BME280;27319;50.306;18.926;2023-05-10T16:47:44;98132.47;;;18.70;37.54
41624;BME280;27319;50.306;18.926;2023-05-10T16:50:45;98133.72;;;18.74;37.66
41624;BME280;27319;50.306;18.926;2023-05-10T16:54:07;98138.50;;;18.72;37.43
41624;BME280;27319;50.306;18.926;2023-05-10T16:58:08;98135.03;;;18.65;36.43
41624;BME280;27319;50.306;18.926;2023-05-10T17:01:49;98146.94;;;18.64;36.51
41624;BME280;27319;50.306;18.926;2023-05-10T17:05:12;98144.28;;;18.57;36.86
41624;BME280;27319;50.306;18.926;2023-05-10T17:09:13;98156.66;;;18.53;37.03
41624;BME280;27319;50.306;18.926;2023-05-10T17:12:50;98151.44;;;18.52;37.69
41624;BME280;27319;50.306;18.926;2023-05-10T17:15:51;98159.59;;;18.52;37.08
41624;BME280;27319;50.306;18.926;2023-05-10T17:18:52;98154.44;;;18.44;38.03
41624;BME280;27319;50.306;18.926;2023-05-10T17:21:52;98157.75;;;18.46;37.62
41624;BME280;27319;50.306;18.926;2023-05-10T17:25:13;98161.34;;;18.40;36.94
41624;BME280;27319;50.306;18.926;2023-05-10T17:28:31;98161.16;;;18.35;37.50
41624;BME280;27319;50.306;18.926;2023-05-10T17:31:32;98167.44;;;18.29;37.99
41624;BME280;27319;50.306;18.926;2023-05-10T17:34:53;98164.38;;;18.19;39.61
41624;BME280;27319;50.306;18.926;2023-05-10T17:38:53;98166.84;;;17.83;40.63
41624;BME280;27319;50.306;18.926;2023-05-10T17:42:35;98164.66;;;17.60;41.49
41624;BME280;27319;50.306;18.926;2023-05-10T17:45:55;98171.56;;;17.37;42.11
41624;BME280;27319;50.306;18.926;2023-05-10T17:49:56;98174.53;;;17.16;43.95
41624;BME280;27319;50.306;18.926;2023-05-10T17:53:40;98175.38;;;16.97;43.36
41624;BME280;27319;50.306;18.926;2023-05-10T17:57:01;98180.41;;;16.87;44.07
41624;BME280;27319;50.306;18.926;2023-05-10T18:00:56;98176.25;;;16.78;44.78
41624;BME280;27319;50.306;18.926;2023-05-10T18:04:17;98181.66;;;16.65;46.79
41624;BME280;27319;50.306;18.926;2023-05-10T18:07:58;98189.59;;;16.60;45.57
41624;BME280;27319;50.306;18.926;2023-05-10T18:11:19;98187.47;;;16.49;47.19
41624;BME280;27319;50.306;18.926;2023-05-10T18:15:19;98184.34;;;16.39;45.83
41624;BME280;27319;50.306;18.926;2023-05-10T18:19:20;98196.56;;;16.35;47.62
41624;BME280;27319;50.306;18.926;2023-05-10T18:23:01;98193.88;;;16.28;47.45